Time;durP1;ratioP1;P1;durP2;ratioP2;P2;SDS_P1;SDS_P2;PMS_P1;PMS_P2;Temp;Humidity;BMP_temperature;BMP_pressure;BME280_temperature;BME280_humidity;BME280_pressure;Samples;Min_cycle;Max_cycle;Signal;HPM_P1;HPM_P2
2022/07/05 00:00:54;;;;;;;;;;;;;;;;;;;;;
2022/07/05 00:04:51;;;;;;;6.40;5.60;;;;;;;21.85;60.27;100598.17;108782;1270;23814;-78
2022/07/05 00:08:21;;;;;;;5.40;4.90;;;;;;;21.77;60.58;100599.48;108889;1270;22094;-79
2022/07/05 00:12:08;;;;;;;6.80;5.80;;;;;;;21.69;60.75;100595.54;108877;1272;21996;-79
2022/07/05 00:16:11;;;;;;;;;;;;;;;;;;;;;
2022/07/05 00:19:44;;;;;;;6.80;6.00;;;;;;;21.42;61.68;100591.06;104794;1263;6166016;-78
2022/07/05 00:27:48;;;;;;;9.50;5.60;;;;;;;21.27;62.60;100588.11;109439;1263;21984;-79
2022/07/05 00:31:40;;;;;;;;;;;;;;;;;;;;;
2022/07/05 00:35:41;;;;;;;;;;;;;;;;;;;;;
2022/07/05 00:39:33;;;;;;;;;;;;;;;;;;;;;
2022/07/05 00:43:05;;;;;;;8.60;5.70;;;;;;;20.95;63.34;100592.00;107987;1281;23638;-78
2022/07/05 00:49:46;;;;;;;7.60;5.80;;;;;;;20.85;63.74;100592.33;108511;1273;22248;-79
2022/07/05 00:54:08;;;;;;;8.20;6.50;;;;;;;20.75;63.86;100590.90;108272;1276;21988;-78
2022/07/05 00:56:38;;;;;;;8.40;7.00;;;;;;;20.72;64.08;100585.95;108348;1273;22803;-79
2022/07/05 01:00:59;;;;;;;;;;;;;;;;;;;;;
2022/07/05 01:03:54;;;;;;;;;;;;;;;;;;;;;
2022/07/05 01:07:05;;;;;;;8.00;7.20;;;;;;;20.61;64.69;100583.13;108340;1276;21997;-80
2022/07/05 01:10:14;;;;;;;;;;;;;;;;;;;;;
2022/07/05 01:14:34;;;;;;;;;;;;;;;;;;;;;
2022/07/05 01:21:24;;;;;;;9.00;7.30;;;;;;;20.38;65.27;100579.79;109854;1261;21958;-79
2022/07/05 01:23:54;;;;;;;13.90;9.20;;;;;;;20.36;65.16;100578.57;109678;1262;21977;-78
2022/07/05 01:26:22;;;;;;;12.40;8.40;;;;;;;20.36;65.38;100582.33;109520;1262;21991;-78
2022/07/05 01:28:51;;;;;;;9.10;6.30;;;;;;;20.36;65.41;100577.88;109663;1262;21981;-79
2022/07/05 01:31:20;;;;;;;10.60;6.90;;;;;;;20.34;65.44;100574.34;109760;1262;23043;-80
2022/07/05 01:33:49;;;;;;;6.90;6.30;;;;;;;20.33;65.47;100574.94;109730;1260;21980;-80
2022/07/05 01:36:18;;;;;;;9.90;6.00;;;;;;;20.29;65.54;100581.71;109724;1260;23677;-79
2022/07/05 01:38:48;;;;;;;9.10;6.70;;;;;;;20.25;65.60;100590.64;109621;1262;21982;-80
2022/07/05 01:41:17;;;;;;;11.40;6.50;;;;;;;20.22;65.77;100592.08;110299;1256;21965;-79
2022/07/05 01:43:46;;;;;;;8.30;6.00;;;;;;;20.22;66.01;100596.79;110285;1256;22079;-79
2022/07/05 01:46:21;;;;;;;8.20;7.40;;;;;;;20.22;66.22;100598.64;110505;1256;22432;-80
2022/07/05 01:48:56;;;;;;;7.60;6.80;;;;;;;20.21;66.38;100600.68;110460;1256;23436;-80
2022/07/05 01:51:32;;;;;;;8.10;6.30;;;;;;;20.21;66.64;100604.05;110707;1251;23026;-79
2022/07/05 01:54:02;;;;;;;7.10;6.40;;;;;;;20.24;66.89;100609.30;110513;1252;22591;-79
2022/07/05 01:56:31;;;;;;;11.30;7.70;;;;;;;20.28;66.95;100609.05;110711;1250;22748;-79
2022/07/05 01:59:09;;;;;;;8.60;6.90;;;;;;;20.32;66.82;100609.78;110538;1253;23858;-79
2022/07/05 02:02:45;;;;;;;;;;;;;;;;;;;;;
2022/07/05 02:06:38;;;;;;;;;;;;;;;;;;;;;
2022/07/05 02:18:55;;;;;;;;;;;;;;;;;;;;;
2022/07/05 02:22:09;;;;;;;;;;;;;;;;;;;;;
2022/07/05 02:25:25;;;;;;;;;;;;;;;;;;;;;
2022/07/05 02:28:42;;;;;;;;;;;;;;;;;;;;;
2022/07/05 02:32:24;;;;;;;;;;;;;;;;;;;;;
2022/07/05 02:36:03;;;;;;;;;;;;;;;;;;;;;
2022/07/05 02:40:20;;;;;;;;;;;;;;;;;;;;;
2022/07/05 02:43:48;;;;;;;9.00;6.20;;;;;;;19.53;67.02;100602.86;107778;1288;22085;-80
2022/07/05 02:46:40;;;;;;;;;;;;;;;;;;;;;
2022/07/05 02:50:01;;;;;;;;;;;;;;;;;;;;;
2022/07/05 02:52:52;;;;;;;8.00;6.30;;;;;;;19.36;67.37;100610.11;108101;1276;21998;-82
2022/07/05 02:55:58;;;;;;;;;;;;;;;;;;;;;
2022/07/05 02:59:35;;;;;;;;;;;;;;;;;;;;;
2022/07/05 03:02:19;;;;;;;;;;;;;;;;;;;;;
2022/07/05 03:10:45;;;;;;;;;;;;;;;;;;;;;
2022/07/05 03:14:04;;;;;;;16.00;12.60;;;;;;;19.23;68.09;100611.16;108611;1274;23734;-80
2022/07/05 03:17:59;;;;;;;;;;;;;;;;;;;;;
2022/07/05 03:22:10;;;;;;;;;;;;;;;;;;;;;
2022/07/05 03:24:53;;;;;;;6.00;3.90;;;;;;;19.22;67.42;100622.41;108080;1285;22013;-80
2022/07/05 03:28:22;;;;;;;;;;;;;;;;;;;;;
2022/07/05 03:31:40;;;;;;;;;;;;;;;;;;;;;
2022/07/05 03:34:44;;;;;;;;;;;;;;;;;;;;;
2022/07/05 03:38:12;;;;;;;;;;;;;;;;;;;;;
2022/07/05 03:41:25;;;;;;;;;;;;;;;;;;;;;
2022/07/05 03:44:32;;;;;;;5.90;3.70;;;;;;;19.25;66.71;100633.73;108070;1279;23008;-79
2022/07/05 03:48:23;;;;;;;4.70;3.60;;;;;;;19.25;66.68;100629.92;108501;1277;22098;-79
2022/07/05 03:52:37;;;;;;;10.70;3.80;;;;;;;19.25;66.50;100635.29;108640;1274;22079;-80
2022/07/05 03:56:26;;;;;;;8.00;3.90;;;;;;;19.30;66.42;100648.43;108514;1275;23754;-80
2022/07/05 04:02:59;;;;;;;7.90;3.90;;;;;;;19.36;66.13;100658.20;108544;1277;22016;-79
2022/07/05 04:05:47;;;;;;;;;;;;;;;;;;;;;
2022/07/05 04:08:27;;;;;;;6.40;4.10;;;;;;;19.41;65.84;100666.00;108810;1270;23919;-79
2022/07/05 04:13:14;;;;;;;;;;;;;;;;;;;;;
2022/07/05 04:20:32;;;;;;;8.10;4.00;;;;;;;19.44;65.74;100672.85;109162;1268;22481;-77
2022/07/05 04:24:21;;;;;;;;;;;;;;;;;;;;;
2022/07/05 04:27:40;;;;;;;;;;;;;;;;;;;;;
2022/07/05 04:31:00;;;;;;;;;;;;;;;;;;;;;
2022/07/05 04:34:23;;;;;;;;;;;;;;;;;;;;;
2022/07/05 04:42:11;;;;;;;9.10;3.60;;;;;;;19.50;65.44;100700.55;108285;1279;23593;-79
2022/07/05 04:45:59;;;;;;;;;;;;;;;;;;;;;
2022/07/05 04:53:17;;;;;;;;;;;;;;;;;;;;;
2022/07/05 04:56:33;;;;;;;7.90;4.10;;;;;;;19.41;66.77;100696.12;107982;1283;23032;-79
2022/07/05 04:59:34;;;;;;;4.50;3.40;;;;;;;19.33;66.82;100687.36;107764;1282;23793;-79
2022/07/05 05:02:56;;;;;;;;;;;;;;;;;;;;;
2022/07/05 05:06:20;;;;;;;8.10;4.70;;;;;;;19.13;67.43;100691.33;109588;1263;22031;-78
2022/07/05 05:09:55;;;;;;;7.90;4.50;;;;;;;19.03;67.75;100699.91;109377;1264;22894;-79
2022/07/05 05:13:48;;;;;;;;;;;;;;;;;;;;;
2022/07/05 05:18:04;;;;;;;;;;;;;;;;;;;;;
2022/07/05 05:21:37;;;;;;;5.50;4.50;;;;;;;19.01;68.83;100716.52;109585;1263;23072;-80
2022/07/05 05:25:28;;;;;;;;;;;;;;;;;;;;;
2022/07/05 05:29:14;;;;;;;7.90;5.40;;;;;;;19.11;68.92;100696.81;108905;1270;23669;-80
2022/07/05 05:32:40;;;;;;;;;;;;;;;;;;;;;
2022/07/05 05:36:15;;;;;;;5.30;4.70;;;;;;;19.00;69.00;100692.11;109648;1263;22223;-79
2022/07/05 05:40:25;;;;;;;;;;;;;;;;;;;;;
2022/07/05 05:44:00;;;;;;;;;;;;;;;;;;;;;
2022/07/05 05:48:30;;;;;;;6.60;5.60;;;;;;;18.89;69.98;100700.52;108772;1273;22679;-80
2022/07/05 05:51:53;;;;;;;;;;;;;;;;;;;;;
2022/07/05 05:54:52;;;;;;;;;;;;;;;;;;;;;
2022/07/05 05:58:09;;;;;;;;;;;;;;;;;;;;;
2022/07/05 06:02:07;;;;;;;;;;;;;;;;;;;;;
2022/07/05 06:05:12;;;;;;;;;;;;;;;;;;;;;
2022/07/05 06:08:52;;;;;;;;;;;;;;;;;;;;;
2022/07/05 06:12:13;;;;;;;;;;;;;;;;;;;;;
2022/07/05 06:16:00;;;;;;;;;;;;;;;;;;;;;
2022/07/05 06:19:26;;;;;;;;;;;;;;;;;;;;;
2022/07/05 06:22:01;;;;;;;12.30;11.10;;;;;;;19.07;69.71;100732.27;109351;1262;23812;-80
2022/07/05 06:24:41;;;;;;;9.90;6.30;;;;;;;19.13;69.91;100730.98;109229;1267;23052;-79
2022/07/05 06:27:46;;;;;;;7.40;5.20;;;;;;;19.19;69.83;100734.17;109234;1267;22115;-80
2022/07/05 06:30:26;;;;;;;7.80;4.70;;;;;;;19.24;69.75;100743.95;108875;1270;23619;-80
2022/07/05 06:33:08;;;;;;;7.50;4.80;;;;;;;19.29;69.62;100745.04;109175;1263;21976;-80
2022/07/05 06:37:02;;;;;;;;;;;;;;;;;;;;;
2022/07/05 06:41:01;;;;;;;;;;;;;;;;;;;;;
2022/07/05 06:44:50;;;;;;;7.70;4.40;;;;;;;19.21;69.09;100742.85;109820;1262;22246;-79
2022/07/05 06:48:40;;;;;;;6.20;4.20;;;;;;;19.25;68.58;100754.71;110259;1262;22493;-79
2022/07/05 06:52:31;;;;;;;;;;;;;;;;;;;;;
2022/07/05 06:56:12;;;;;;;;;;;;;;;;;;;;;
2022/07/05 06:59:52;;;;;;;;;;;;;;;;;;;;;
2022/07/05 07:03:02;;;;;;;9.90;6.20;;;;;;;19.42;68.55;100754.42;108492;1276;22009;-80
2022/07/05 07:06:25;;;;;;;22.60;6.70;;;;;;;19.46;68.31;100757.24;108393;1276;22032;-80
2022/07/05 07:09:43;;;;;;;9.90;5.10;;;;;;;19.45;68.07;100762.20;108440;1276;21994;-79
2022/07/05 07:13:08;;;;;;;;;;;;;;;;;;;;;
2022/07/05 07:17:17;;;;;;;13.20;5.40;;;;;;;19.44;67.76;100753.96;108771;1270;22649;-80
2022/07/05 07:21:13;;;;;;;;;;;;;;;;;;;;;
2022/07/05 07:24:29;;;;;;;;;;;;;;;;;;;;;
2022/07/05 07:27:55;;;;;;;7.70;5.00;;;;;;;19.52;67.41;100761.58;108606;1276;22027;-80
2022/07/05 07:31:08;;;;;;;;;;;;;;;;;;;;;
2022/07/05 07:33:56;;;;;;;10.60;7.60;;;;;;;19.47;67.06;100776.41;108264;1279;21994;-80
2022/07/05 07:37:13;;;;;;;;;;;;;;;;;;;;;
2022/07/05 07:41:07;;;;;;;;;;;;;;;;;;;;;
2022/07/05 07:44:30;;;;;;;7.30;4.30;;;;;;;19.44;67.53;100781.27;108715;1276;22012;-80
2022/07/05 07:48:32;;;;;;;;;;;;;;;;;;;;;
2022/07/05 07:52:30;;;;;;;;;;;;;;;;;;;;;
2022/07/05 07:55:58;;;;;;;5.20;4.70;;;;;;;19.50;68.20;100796.51;108560;1273;21975;-79
2022/07/05 07:59:54;;;;;;;8.90;5.30;;;;;;;19.49;68.57;100797.55;109086;1267;23744;-79
2022/07/05 08:03:56;;;;;;;6.70;5.80;;;;;;;19.47;68.92;100793.60;109295;1266;23771;-79
2022/07/05 08:07:44;;;;;;;13.40;12.20;;;;;;;19.39;69.03;100786.27;108045;1283;23717;-79
2022/07/05 08:10:41;;;;;;;18.40;16.50;;;;;;;19.30;68.98;100790.16;107971;1283;22100;-79
2022/07/05 08:13:29;;;;;;;10.20;8.00;;;;;;;19.19;69.35;100800.68;107640;1283;22055;-79
2022/07/05 08:16:24;;;;;;;12.10;11.00;;;;;;;19.11;70.18;100812.00;107907;1283;22464;-82
2022/07/05 08:22:01;;;;;;;16.40;14.70;;;;;;;18.84;70.01;100811.58;108001;1283;21985;-78
2022/07/05 08:25:02;;;;;;;18.60;7.60;;;;;;;18.63;70.11;100813.21;107964;1277;22107;-79
2022/07/05 08:28:08;;;;;;;6.80;5.00;;;;;;;18.37;70.51;100807.73;108629;1273;23176;-78
2022/07/05 08:30:47;;;;;;;7.20;5.20;;;;;;;18.19;70.91;100805.52;108649;1273;22209;-78
2022/07/05 08:33:30;;;;;;;6.10;4.70;;;;;;;17.92;73.13;100809.14;108536;1273;22944;-80
2022/07/05 08:36:16;;;;;;;12.20;10.90;;;;;;;17.61;75.99;100808.70;108364;1276;22006;-80
2022/07/05 08:39:18;;;;;;;5.90;4.90;;;;;;;17.38;77.87;100810.05;108018;1280;22998;-79
2022/07/05 08:42:09;;;;;;;6.10;4.90;;;;;;;17.19;79.54;100811.71;108481;1279;22170;-79
2022/07/05 08:44:54;;;;;;;5.40;4.30;;;;;;;17.10;81.31;100807.53;107436;1288;544295;-78
2022/07/05 08:47:28;;;;;;;5.50;4.90;;;;;;;16.99;81.91;100802.96;109185;1263;21982;-78
2022/07/05 08:49:59;;;;;;;6.30;5.10;;;;;;;16.88;82.66;100802.67;109242;1262;23740;-78
2022/07/05 08:52:35;;;;;;;10.30;7.40;;;;;;;16.82;83.33;100804.08;109430;1262;21992;-77
2022/07/05 08:55:14;;;;;;;7.10;6.30;;;;;;;16.78;83.80;100806.89;109492;1263;22094;-78
2022/07/05 08:57:45;;;;;;;9.50;7.60;;;;;;;16.78;84.61;100815.27;109066;1260;533013;-78
2022/07/05 09:00:29;;;;;;;7.10;6.40;;;;;;;16.83;85.05;100829.53;109679;1258;21979;-78
2022/07/05 09:03:00;;;;;;;7.70;6.90;;;;;;;16.90;85.66;100835.13;109921;1257;21968;-79
2022/07/05 09:05:36;;;;;;;9.70;6.70;;;;;;;16.97;86.06;100840.49;110150;1258;21941;-79
2022/07/05 09:08:15;;;;;;;7.90;7.00;;;;;;;17.03;86.28;100841.34;110418;1257;22249;-78
2022/07/05 09:11:01;;;;;;;8.00;7.10;;;;;;;17.10;86.53;100840.30;109857;1260;23606;-79
2022/07/05 09:13:52;;;;;;;7.70;6.90;;;;;;;17.16;86.71;100839.63;109251;1266;23768;-80
2022/07/05 09:17:06;;;;;;;8.60;6.80;;;;;;;17.23;86.91;100840.89;109336;1263;23875;-78
2022/07/05 09:20:08;;;;;;;12.10;8.00;;;;;;;17.31;87.19;100838.13;109651;1263;23068;-79
2022/07/05 09:22:54;;;;;;;10.70;8.60;;;;;;;17.40;87.49;100833.89;109407;1264;22018;-79
2022/07/05 09:25:30;;;;;;;10.60;9.10;;;;;;;17.46;87.45;100837.40;110072;1262;21995;-78
2022/07/05 09:28:09;;;;;;;8.80;7.90;;;;;;;17.51;87.50;100841.03;109441;1263;22418;-78
2022/07/05 09:30:41;;;;;;;10.80;8.70;;;;;;;17.53;87.35;100841.69;109595;1262;22034;-78
2022/07/05 09:33:21;;;;;;;10.50;9.60;;;;;;;17.50;87.19;100843.54;110316;1256;21959;-78
2022/07/05 09:35:57;;;;;;;12.40;9.90;;;;;;;17.49;87.27;100846.31;109989;1259;21969;-77
2022/07/05 09:38:29;;;;;;;13.20;11.90;;;;;;;17.51;87.55;100849.45;110470;1252;22009;-78
2022/07/05 09:41:02;;;;;;;11.50;10.40;;;;;;;17.54;87.76;100846.83;110525;1253;23029;-77
2022/07/05 09:43:33;;;;;;;16.80;15.50;;;;;;;17.53;87.68;100844.23;110553;1253;23067;-79
2022/07/05 09:46:08;;;;;;;9.80;8.90;;;;;;;17.54;87.74;100840.41;110672;1250;21967;-78
2022/07/05 09:48:59;;;;;;;8.90;8.00;;;;;;;17.58;87.98;100843.63;110952;1249;22823;-79
2022/07/05 09:51:48;;;;;;;8.40;7.60;;;;;;;17.59;88.09;100836.04;110884;1249;22931;-78
2022/07/05 09:54:24;;;;;;;9.60;8.70;;;;;;;17.61;88.35;100828.89;110864;1249;22060;-78
2022/07/05 09:56:57;;;;;;;14.30;12.90;;;;;;;17.67;88.47;100821.26;110414;1255;21966;-75
2022/07/05 09:59:31;;;;;;;13.00;9.90;;;;;;;17.70;88.42;100821.63;110447;1255;23800;-76
2022/07/05 10:02:02;;;;;;;11.30;10.30;;;;;;;17.72;88.56;100819.34;110413;1257;21978;-76
2022/07/05 10:04:36;;;;;;;11.10;10.00;;;;;;;17.76;88.66;100820.30;110302;1257;22062;-76
2022/07/05 10:07:05;;;;;;;12.00;7.10;;;;;;;17.78;88.70;100819.79;110212;1257;22841;-76
2022/07/05 10:09:38;;;;;;;11.30;10.20;;;;;;;17.77;88.62;100816.16;110326;1255;22426;-75
2022/07/05 10:12:17;;;;;;;9.70;8.80;;;;;;;17.76;88.64;100816.49;110279;1257;23039;-76
2022/07/05 10:14:54;;;;;;;10.30;9.40;;;;;;;17.78;88.69;100816.82;110537;1250;23029;-76
2022/07/05 10:17:30;;;;;;;10.50;9.50;;;;;;;17.78;88.76;100821.72;110715;1249;22028;-76
2022/07/05 10:20:23;;;;;;;10.40;9.40;;;;;;;17.80;88.93;100828.30;110837;1249;22037;-75
2022/07/05 10:22:55;;;;;;;9.40;8.60;;;;;;;17.86;89.19;100831.17;110549;1251;22022;-76
2022/07/05 10:25:32;;;;;;;9.70;8.60;;;;;;;17.95;89.39;100834.93;110621;1249;23580;-76
2022/07/05 10:28:03;;;;;;;17.40;15.60;;;;;;;18.01;89.70;100836.34;110564;1249;22993;-76
2022/07/05 10:30:35;;;;;;;13.30;12.20;;;;;;;18.11;89.85;100841.06;110728;1251;23768;-76
2022/07/05 10:33:07;;;;;;;9.80;8.90;;;;;;;18.22;89.92;100843.50;110730;1250;23569;-76
2022/07/05 10:36:00;;;;;;;10.60;8.50;;;;;;;18.28;89.78;100844.33;110499;1250;21966;-76
2022/07/05 10:38:30;;;;;;;11.60;8.10;;;;;;;18.33;89.62;100842.77;110636;1251;22043;-75
2022/07/05 10:41:04;;;;;;;12.10;8.30;;;;;;;18.33;89.50;100842.67;110538;1249;23671;-74
2022/07/05 10:43:37;;;;;;;9.10;7.80;;;;;;;18.33;89.32;100839.09;110820;1249;22067;-75
2022/07/05 10:46:09;;;;;;;10.40;7.40;;;;;;;18.34;89.29;100842.79;110697;1249;23781;-75
2022/07/05 10:48:39;;;;;;;8.00;7.20;;;;;;;18.33;89.12;100843.61;110292;1254;23746;-76
2022/07/05 10:51:15;;;;;;;10.70;8.70;;;;;;;18.34;89.19;100843.49;110313;1254;22027;-75
2022/07/05 10:53:45;;;;;;;19.80;10.70;;;;;;;18.42;89.58;100846.08;110461;1254;21978;-75
2022/07/05 10:56:18;;;;;;;8.50;7.70;;;;;;;18.51;89.75;100843.85;110493;1253;23133;-76
2022/07/05 10:59:03;;;;;;;8.90;7.40;;;;;;;18.58;89.62;100837.59;110412;1253;21934;-75
2022/07/05 11:01:36;;;;;;;18.30;9.70;;;;;;;18.60;89.31;100830.38;109844;1259;23597;-76
2022/07/05 11:04:27;;;;;;;9.30;7.50;;;;;;;18.64;89.34;100826.86;109849;1259;21972;-76
2022/07/05 11:06:57;;;;;;;8.60;7.80;;;;;;;18.66;89.40;100821.35;110234;1254;21962;-76
2022/07/05 11:09:28;;;;;;;12.50;8.70;;;;;;;18.68;89.18;100818.91;110336;1254;21969;-76
2022/07/05 11:12:04;;;;;;;9.20;8.40;;;;;;;18.67;88.99;100818.71;110123;1259;22079;-76
2022/07/05 11:15:05;;;;;;;10.50;7.60;;;;;;;18.68;88.92;100820.19;109950;1261;24265;-77
2022/07/05 11:17:36;;;;;;;8.60;7.30;;;;;;;18.72;88.94;100819.88;109983;1261;21972;-75
2022/07/05 11:20:35;;;;;;;9.40;8.50;;;;;;;18.73;88.63;100812.77;109917;1260;21977;-76
2022/07/05 11:23:10;;;;;;;13.20;8.70;;;;;;;18.74;88.59;100815.30;109631;1262;21947;-77
2022/07/05 11:25:46;;;;;;;7.70;6.90;;;;;;;18.80;88.70;100813.55;109274;1262;23779;-77
2022/07/05 11:28:26;;;;;;;7.40;6.70;;;;;;;18.85;88.60;100815.36;109394;1262;21972;-77
2022/07/05 11:31:01;;;;;;;8.60;6.40;;;;;;;18.89;88.36;100818.23;109371;1261;22021;-77
2022/07/05 11:33:38;;;;;;;6.00;5.20;;;;;;;18.87;87.93;100818.89;109359;1260;21990;-76
2022/07/05 11:36:28;;;;;;;6.80;5.30;;;;;;;18.87;87.77;100814.89;109099;1259;22457;-76
2022/07/05 11:39:19;;;;;;;6.30;5.70;;;;;;;18.90;87.73;100813.27;109959;1259;23574;-78
2022/07/05 11:41:53;;;;;;;6.20;5.10;;;;;;;18.95;87.63;100814.20;109136;1267;22021;-77
2022/07/05 11:44:24;;;;;;;6.30;4.90;;;;;;;18.97;87.48;100809.63;109492;1261;22040;-77
2022/07/05 11:47:16;;;;;;;5.80;4.90;;;;;;;19.01;87.27;100809.23;109737;1260;23124;-77
2022/07/05 11:49:58;;;;;;;6.20;5.10;;;;;;;19.03;87.07;100806.31;108935;1267;22005;-77
2022/07/05 11:52:34;;;;;;;7.80;5.90;;;;;;;19.08;87.02;100799.20;109011;1267;24474;-77
2022/07/05 11:55:11;;;;;;;9.60;5.90;;;;;;;19.14;87.07;100795.30;109412;1261;21970;-77
2022/07/05 11:57:50;;;;;;;10.20;6.20;;;;;;;19.22;87.11;100792.13;109827;1261;23048;-78
2022/07/05 12:00:35;;;;;;;9.60;6.40;;;;;;;19.32;86.94;100795.24;109798;1256;23743;-78
2022/07/05 12:03:12;;;;;;;7.50;5.30;;;;;;;19.39;86.64;100791.34;110102;1256;23184;-78
2022/07/05 12:05:42;;;;;;;6.40;5.00;;;;;;;19.43;86.38;100785.39;109630;1261;22195;-77
2022/07/05 12:08:20;;;;;;;6.70;5.10;;;;;;;19.46;86.14;100783.34;109289;1261;22032;-76
2022/07/05 12:13:50;;;;;;;5.20;4.70;;;;;;;19.59;85.59;100793.07;108940;1264;22006;-78
2022/07/05 12:16:25;;;;;;;6.90;5.10;;;;;;;19.65;85.59;100795.11;109350;1260;21971;-78
2022/07/05 12:19:01;;;;;;;5.30;4.80;;;;;;;19.77;85.61;100799.41;109616;1261;23596;-77
2022/07/05 12:21:37;;;;;;;5.70;4.60;;;;;;;19.87;85.27;100795.79;109725;1260;23078;-77
2022/07/05 12:24:16;;;;;;;6.00;4.70;;;;;;;19.98;85.10;100792.23;109828;1260;22014;-77
2022/07/05 12:26:57;;;;;;;5.10;4.60;;;;;;;20.09;84.62;100792.31;109934;1260;23080;-77
2022/07/05 12:29:28;;;;;;;5.60;4.90;;;;;;;20.15;84.14;100787.27;109811;1260;21968;-78
2022/07/05 12:32:08;;;;;;;5.00;4.50;;;;;;;20.22;83.91;100786.71;109977;1256;23119;-78
2022/07/05 12:34:39;;;;;;;4.40;3.90;;;;;;;20.27;83.13;100784.55;110061;1256;21983;-77
2022/07/05 12:37:29;;;;;;;6.50;3.50;;;;;;;20.30;82.52;100783.41;110434;1254;22023;-78
2022/07/05 12:40:31;;;;;;;8.20;4.00;;;;;;;20.34;81.87;100778.17;110375;1256;22042;-78
2022/07/05 12:43:54;;;;;;;6.10;3.60;;;;;;;20.36;81.23;100776.21;110447;1253;21975;-78
2022/07/05 12:46:41;;;;;;;6.00;5.40;;;;;;;20.39;81.16;100771.40;110596;1253;23660;-77
2022/07/05 12:49:18;;;;;;;7.70;4.40;;;;;;;20.47;81.13;100770.94;109975;1259;23690;-77
2022/07/05 12:52:26;;;;;;;6.90;3.40;;;;;;;20.51;80.48;100772.27;110414;1254;23021;-77
2022/07/05 12:58:02;;;;;;;6.50;5.30;;;;;;;20.55;79.61;100772.78;110363;1254;22364;-77
2022/07/05 13:00:33;;;;;;;9.50;5.00;;;;;;;20.59;79.28;100771.08;110284;1254;21954;-79
2022/07/05 13:03:07;;;;;;;5.40;3.30;;;;;;;20.64;78.79;100771.23;110221;1254;23747;-77
2022/07/05 13:05:40;;;;;;;7.50;5.70;;;;;;;20.69;78.41;100771.42;109837;1259;21997;-78
2022/07/05 13:08:28;;;;;;;7.70;3.10;;;;;;;20.76;77.96;100774.83;110140;1259;23101;-77
2022/07/05 13:11:04;;;;;;;5.00;3.60;;;;;;;20.82;77.48;100775.33;110018;1259;21975;-78
2022/07/05 13:13:35;;;;;;;4.70;2.90;;;;;;;20.88;76.86;100769.75;109979;1258;23117;-78
2022/07/05 13:16:07;;;;;;;7.30;3.50;;;;;;;20.90;76.18;100769.86;110020;1257;21968;-78
2022/07/05 13:18:37;;;;;;;4.40;4.00;;;;;;;20.95;75.88;100768.23;110169;1258;21977;-77
2022/07/05 13:21:10;;;;;;;5.70;3.40;;;;;;;21.04;75.64;100770.34;109607;1261;22053;-78
2022/07/05 13:23:47;;;;;;;8.40;3.10;;;;;;;21.10;75.21;100772.73;109854;1261;23082;-77
2022/07/05 13:26:24;;;;;;;7.20;3.00;;;;;;;21.13;74.59;100775.17;109794;1261;21974;-79
2022/07/05 13:28:57;;;;;;;4.50;2.90;;;;;;;21.17;74.18;100778.98;109064;1267;21984;-78
2022/07/05 13:31:28;;;;;;;3.00;2.30;;;;;;;21.18;73.48;100778.26;109186;1263;22025;-78
2022/07/05 13:33:59;;;;;;;6.00;3.80;;;;;;;21.22;73.43;100773.70;109514;1263;22057;-77
2022/07/05 13:36:35;;;;;;;7.80;4.60;;;;;;;21.26;73.20;100772.83;109286;1262;23435;-77
2022/07/05 13:39:05;;;;;;;10.90;4.60;;;;;;;21.31;72.93;100773.58;109596;1257;23820;-77
2022/07/05 13:41:37;;;;;;;10.00;7.20;;;;;;;21.39;72.57;100773.52;110050;1255;22762;-77
2022/07/05 13:44:12;;;;;;;7.60;3.40;;;;;;;21.49;72.08;100771.97;110309;1256;21995;-77
2022/07/05 13:46:42;;;;;;;6.40;3.20;;;;;;;21.57;71.66;100770.36;110150;1249;22687;-78
2022/07/05 13:49:14;;;;;;;7.30;5.40;;;;;;;21.65;71.08;100768.09;110743;1249;22161;-77
2022/07/05 13:51:44;;;;;;;6.40;2.80;;;;;;;21.68;70.35;100766.73;110303;1255;22060;-78
2022/07/05 13:54:21;;;;;;;6.30;2.10;;;;;;;21.59;69.09;100765.49;110292;1255;21978;-78
2022/07/05 13:56:51;;;;;;;4.60;2.50;;;;;;;21.48;68.64;100764.30;110085;1255;21970;-78
2022/07/05 13:59:25;;;;;;;8.90;3.90;;;;;;;21.40;68.16;100765.49;110159;1255;22026;-78
2022/07/05 14:01:59;;;;;;;5.60;3.10;;;;;;;21.40;68.23;100765.16;110280;1255;22061;-78
2022/07/05 14:04:33;;;;;;;3.10;1.80;;;;;;;21.39;67.87;100763.90;110306;1256;23668;-78
2022/07/05 14:07:10;;;;;;;2.70;2.40;;;;;;;21.37;67.75;100762.26;110205;1255;21978;-78
2022/07/05 14:09:45;;;;;;;3.60;2.30;;;;;;;21.38;67.54;100766.46;110219;1255;21963;-77
2022/07/05 14:12:15;;;;;;;2.70;2.20;;;;;;;21.40;67.22;100769.84;110302;1256;22734;-77
2022/07/05 14:14:45;;;;;;;4.70;2.40;;;;;;;21.41;67.03;100769.81;110205;1256;23039;-77
2022/07/05 14:17:14;;;;;;;6.20;3.20;;;;;;;21.43;66.92;100769.76;110648;1249;21971;-77
2022/07/05 14:19:44;;;;;;;3.20;2.00;;;;;;;21.41;66.57;100766.39;110571;1249;22072;-77
2022/07/05 14:22:23;;;;;;;4.40;2.30;;;;;;;21.35;66.17;100763.03;110555;1249;21958;-82
2022/07/05 14:26:10;;;;;;;;;;;;;;;;;;;;;
2022/07/05 14:29:39;;;;;;;9.30;4.30;;;;;;;21.25;66.25;100756.90;110647;1256;23039;-81
2022/07/05 14:33:40;;;;;;;;;;;;;;;;;;;;;
2022/07/05 14:37:22;;;;;;;;;;;;;;;;;;;;;
2022/07/05 14:40:49;;;;;;;4.30;2.70;;;;;;;21.41;65.98;100758.20;109764;1263;22074;-79
2022/07/05 14:44:21;;;;;;;;;;;;;;;;;;;;;
2022/07/05 14:47:31;;;;;;;;;;;;;;;;;;;;;
2022/07/05 14:51:17;;;;;;;3.90;2.80;;;;;;;21.66;64.83;100753.94;109340;1266;21998;-80
2022/07/05 14:54:13;;;;;;;5.20;3.10;;;;;;;21.69;64.47;100751.27;109180;1270;22008;-77
2022/07/05 14:56:53;;;;;;;;;;;;;;;;;;;;;
2022/07/05 14:59:46;;;;;;;4.10;2.50;;;;;;;21.73;63.16;100747.29;108738;1270;22787;-78
2022/07/05 15:02:16;;;;;;;7.90;2.90;;;;;;;21.71;62.85;100747.40;108719;1270;22030;-78
2022/07/05 15:04:48;;;;;;;5.50;2.50;;;;;;;21.73;62.67;100744.92;108524;1273;21984;-76
2022/07/05 15:07:18;;;;;;;6.90;2.30;;;;;;;21.79;62.32;100744.59;108656;1270;22739;-79
2022/07/05 15:09:48;;;;;;;4.50;2.40;;;;;;;21.81;61.45;100745.70;109480;1263;21966;-78
2022/07/05 15:12:19;;;;;;;4.30;2.50;;;;;;;21.75;60.91;100740.84;109562;1261;21971;-78
2022/07/05 15:14:55;;;;;;;5.20;2.50;;;;;;;21.69;60.46;100737.17;109338;1261;23171;-78
2022/07/05 15:17:37;;;;;;;4.20;2.50;;;;;;;21.63;60.59;100733.92;109319;1263;23604;-78
2022/07/05 15:20:10;;;;;;;4.30;2.70;;;;;;;21.62;60.63;100732.19;109140;1267;24038;-78
2022/07/05 15:22:42;;;;;;;9.50;4.70;;;;;;;21.66;60.82;100735.32;109090;1261;23107;-77
2022/07/05 15:25:11;;;;;;;4.70;3.30;;;;;;;21.69;60.91;100732.84;109252;1264;22157;-77
2022/07/05 15:27:48;;;;;;;10.90;6.70;;;;;;;21.72;60.81;100733.39;109341;1263;22018;-77
2022/07/05 15:30:22;;;;;;;8.30;3.10;;;;;;;21.78;60.78;100734.62;109792;1256;23068;-78
2022/07/05 15:32:54;;;;;;;4.20;3.10;;;;;;;21.84;60.74;100739.20;110340;1255;22438;-78
2022/07/05 15:35:29;;;;;;;6.50;2.80;;;;;;;21.81;60.44;100738.17;110390;1254;21969;-79
2022/07/05 15:37:58;;;;;;;5.80;3.30;;;;;;;21.75;60.41;100732.92;109878;1258;22021;-79
2022/07/05 15:40:29;;;;;;;5.40;3.00;;;;;;;21.70;60.34;100731.03;110255;1257;23640;-79
2022/07/05 15:43:06;;;;;;;3.40;2.50;;;;;;;21.72;60.61;100725.86;110262;1257;22064;-78
2022/07/05 15:45:42;;;;;;;4.60;2.20;;;;;;;21.75;60.27;100725.13;110477;1252;23113;-79
2022/07/05 15:48:12;;;;;;;4.60;2.90;;;;;;;21.78;59.79;100722.75;110555;1252;22001;-81
2022/07/05 15:50:42;;;;;;;3.60;2.70;;;;;;;21.82;59.56;100722.02;110384;1253;22344;-80
2022/07/05 15:53:11;;;;;;;5.30;2.60;;;;;;;21.80;59.22;100719.81;110249;1254;21961;-79
2022/07/05 15:55:41;;;;;;;4.50;2.80;;;;;;;21.80;59.02;100719.81;110323;1253;22727;-80
2022/07/05 15:58:11;;;;;;;3.30;2.20;;;;;;;21.77;58.88;100716.56;110613;1253;21961;-79
2022/07/05 16:00:40;;;;;;;3.10;2.50;;;;;;;21.79;59.11;100716.23;110952;1254;21983;-80
2022/07/05 16:03:13;;;;;;;2.60;2.00;;;;;;;21.81;58.95;100714.14;110945;1252;21985;-80
2022/07/05 16:05:49;;;;;;;8.20;2.80;;;;;;;21.82;58.91;100712.60;110543;1252;22301;-79
2022/07/05 16:08:21;;;;;;;3.60;2.30;;;;;;;21.83;58.90;100708.39;110419;1255;23025;-81
2022/07/05 16:10:51;;;;;;;5.10;3.50;;;;;;;21.89;58.90;100710.23;110430;1252;21966;-78
2022/07/05 16:13:25;;;;;;;6.20;2.30;;;;;;;21.99;58.96;100707.06;109895;1260;21982;-79
2022/07/05 16:16:15;;;;;;;6.20;3.00;;;;;;;22.07;58.43;100703.08;110271;1259;23736;-80
2022/07/05 16:18:48;;;;;;;7.00;4.60;;;;;;;22.10;58.13;100709.32;109266;1267;21986;-81
2022/07/05 16:21:18;;;;;;;4.00;2.70;;;;;;;22.16;58.16;100708.49;109591;1261;23598;-79
2022/07/05 16:23:52;;;;;;;3.50;2.40;;;;;;;22.18;58.00;100709.29;109701;1261;21995;-79